Time;durP1;ratioP1;P1;durP2;ratioP2;P2;SDS_P1;SDS_P2;PMS_P1;PMS_P2;Temp;Humidity;BMP_temperature;BMP_pressure;BME280_temperature;BME280_humidity;BME280_pressure;Samples;Min_cycle;Max_cycle;Signal;HPM_P1;HPM_P2
2022/09/19 00:03:02;;;;;;;1.30;0.32;;;;;;;10.16;79.93;100036.25;10237913;28;20058;-74
2022/09/19 00:08:03;;;;;;;1.40;0.80;;;;;;;10.17;79.57;100038.81;10240335;28;20055;-75
2022/09/19 00:13:07;;;;;;;2.28;0.35;;;;;;;10.13;80.04;100037.34;10240459;28;20054;-77
2022/09/19 00:18:08;;;;;;;2.38;0.40;;;;;;;10.03;80.80;100041.75;10234631;28;20039;-75
2022/09/19 00:28:50;;;;;;;5.75;0.63;;;;;;;10.15;81.39;100029.25;10166376;29;20059;-78
2022/09/19 00:33:52;;;;;;;2.15;0.60;;;;;;;10.09;81.26;100027.97;10253649;28;20097;-78
2022/09/19 00:38:53;;;;;;;1.80;0.73;;;;;;;10.24;81.21;100033.84;10254552;28;20055;-75
2022/09/19 00:44:25;;;;;;;2.40;0.50;;;;;;;10.24;80.96;100034.66;10235990;28;20050;-75
2022/09/19 00:49:31;;;;;;;1.42;0.63;;;;;;;10.24;82.24;100040.00;10237011;28;20055;-73
2022/09/19 00:54:40;;;;;;;1.08;0.40;;;;;;;10.33;82.09;100040.19;10235631;28;20597;-73
2022/09/19 00:59:47;;;;;;;2.75;0.55;;;;;;;10.27;81.38;100045.06;10237708;28;20062;-74
2022/09/19 01:04:48;;;;;;;4.78;1.23;;;;;;;10.29;81.63;100057.41;10243706;28;20047;-75
2022/09/19 01:10:13;;;;;;;3.20;0.65;;;;;;;10.26;82.13;100059.31;10249215;28;20063;-77
2022/09/19 01:15:26;;;;;;;3.65;1.00;;;;;;;10.20;82.42;100062.47;10247357;28;20165;-76
2022/09/19 01:20:50;;;;;;;3.45;0.90;;;;;;;10.26;82.85;100069.13;10271654;28;20055;-77
2022/09/19 01:26:11;;;;;;;3.58;1.00;;;;;;;10.31;82.63;100074.91;10283627;28;20062;-75
2022/09/19 01:31:22;;;;;;;6.53;1.52;;;;;;;10.35;83.04;100079.03;10250646;28;20422;-76
2022/09/19 01:36:31;;;;;;;2.83;1.00;;;;;;;10.34;83.30;100087.97;10246319;28;20525;-76
2022/09/19 01:41:32;;;;;;;4.25;0.95;;;;;;;10.45;82.76;100084.47;10249417;28;20066;-74
2022/09/19 01:46:55;;;;;;;2.05;0.90;;;;;;;10.59;82.87;100093.94;10248209;28;20051;-76
2022/09/19 01:52:33;;;;;;;5.18;1.00;;;;;;;10.66;82.39;100095.13;10245202;28;20055;-74
2022/09/19 01:58:07;;;;;;;5.40;1.13;;;;;;;10.70;81.77;100103.69;10234725;28;20050;-76
2022/09/19 02:03:36;;;;;;;2.88;0.77;;;;;;;10.57;82.31;100099.41;10248840;28;20043;-75
2022/09/19 02:08:51;;;;;;;6.13;1.10;;;;;;;10.49;83.00;100106.31;10261111;28;20491;-75
2022/09/19 02:14:07;;;;;;;1.85;1.00;;;;;;;10.57;84.14;100107.38;10245176;28;20432;-74
2022/09/19 02:19:15;;;;;;;5.47;1.17;;;;;;;10.67;82.78;100104.78;10242013;28;20415;-73
2022/09/19 02:24:22;;;;;;;4.88;0.93;;;;;;;10.66;82.88;100118.22;10242644;28;20063;-75
2022/09/19 02:29:30;;;;;;;5.50;1.63;;;;;;;10.66;82.16;100113.78;10245214;28;20039;-74
2022/09/19 02:34:31;;;;;;;4.63;1.20;;;;;;;10.66;83.09;100131.53;10251049;28;20051;-74
2022/09/19 02:39:44;;;;;;;5.95;1.23;;;;;;;10.66;82.83;100119.09;10247146;28;20062;-75
2022/09/19 02:45:10;;;;;;;4.28;0.93;;;;;;;10.76;83.46;100136.00;10240097;28;20837;-75
2022/09/19 02:50:18;;;;;;;5.90;1.67;;;;;;;10.77;82.27;100136.84;10238886;28;20047;-74
2022/09/19 02:55:25;;;;;;;5.75;1.15;;;;;;;10.74;82.68;100134.44;10244149;28;20046;-74
2022/09/19 03:00:27;;;;;;;5.90;1.60;;;;;;;10.74;82.40;100137.91;10248344;28;20568;-74
2022/09/19 03:05:29;;;;;;;6.47;1.70;;;;;;;10.86;82.10;100144.03;10245566;28;20051;-73
2022/09/19 03:10:35;;;;;;;6.32;1.55;;;;;;;10.83;82.06;100136.31;10237371;28;20051;-76
2022/09/19 03:15:51;;;;;;;4.00;1.52;;;;;;;10.80;81.71;100160.53;10238309;28;20121;-72
2022/09/19 03:20:58;;;;;;;5.78;2.50;;;;;;;10.77;82.37;100160.78;10237238;28;20172;-75
2022/09/19 03:26:01;;;;;;;3.42;1.90;;;;;;;10.80;82.31;100163.19;10239911;28;20696;-74
2022/09/19 03:31:03;;;;;;;5.53;1.98;;;;;;;10.74;82.50;100172.53;10241036;28;20055;-73
2022/09/19 03:36:07;;;;;;;8.13;2.20;;;;;;;10.71;82.68;100174.63;10241784;28;20051;-74
2022/09/19 03:41:09;;;;;;;5.88;2.50;;;;;;;10.83;83.03;100181.59;10238178;28;20526;-73
2022/09/19 03:46:19;;;;;;;6.60;2.10;;;;;;;10.86;82.59;100177.84;10239674;28;20054;-77
2022/09/19 03:51:20;;;;;;;6.78;2.70;;;;;;;10.88;82.38;100176.72;10241061;28;20051;-74
2022/09/19 03:56:22;;;;;;;5.57;2.65;;;;;;;10.95;82.46;100185.88;10239310;28;20458;-77
2022/09/19 04:01:23;;;;;;;5.00;2.22;;;;;;;11.05;82.14;100195.75;10240667;28;20062;-75
2022/09/19 04:06:25;;;;;;;6.85;2.60;;;;;;;11.05;82.03;100204.63;10275215;28;20047;-75
2022/09/19 04:11:27;;;;;;;5.07;2.92;;;;;;;10.99;82.45;100207.81;10250095;28;20051;-73
2022/09/19 04:16:28;;;;;;;4.30;2.58;;;;;;;11.01;82.13;100202.34;10238218;28;20043;-74
2022/09/19 04:21:30;;;;;;;6.00;3.05;;;;;;;11.13;82.35;100201.31;10233440;28;20463;-73
2022/09/19 04:26:31;;;;;;;7.43;2.90;;;;;;;11.15;81.67;100220.66;10241299;28;20062;-73
2022/09/19 04:31:40;;;;;;;6.45;2.75;;;;;;;11.19;82.17;100216.78;10233592;28;20487;-73
2022/09/19 04:36:41;;;;;;;7.30;2.60;;;;;;;11.24;81.78;100233.22;10238456;28;20501;-75
2022/09/19 04:41:43;;;;;;;8.68;3.10;;;;;;;11.24;81.93;100238.53;10241452;28;20524;-76
2022/09/19 04:46:46;;;;;;;5.35;2.67;;;;;;;11.22;81.52;100231.69;10231334;28;20077;-76
2022/09/19 04:51:48;;;;;;;4.25;2.85;;;;;;;11.19;82.22;100245.25;10223718;28;20050;-76
2022/09/19 04:56:49;;;;;;;6.78;3.00;;;;;;;11.20;81.88;100233.59;10249401;28;20043;-77
2022/09/19 05:01:51;;;;;;;8.02;3.30;;;;;;;11.29;82.57;100235.53;10240010;28;20058;-75
2022/09/19 05:06:53;;;;;;;5.85;2.90;;;;;;;11.32;82.70;100244.09;10236748;28;20051;-75
2022/09/19 05:11:56;;;;;;;7.30;3.33;;;;;;;11.41;82.19;100241.63;10231256;28;20073;-74
2022/09/19 05:16:57;;;;;;;7.13;4.38;;;;;;;11.34;82.40;100256.44;10233092;28;20054;-73
2022/09/19 05:21:58;;;;;;;5.95;3.20;;;;;;;11.38;82.33;100265.84;10229808;28;20447;-73
2022/09/19 05:27:02;;;;;;;4.63;3.17;;;;;;;11.30;82.68;100272.69;10236109;28;20405;-74
2022/09/19 05:32:04;;;;;;;7.72;3.83;;;;;;;11.26;82.98;100276.59;10225613;28;20051;-73
2022/09/19 05:37:06;;;;;;;6.65;3.03;;;;;;;11.35;83.01;100284.78;10227589;28;20047;-75
2022/09/19 05:42:07;;;;;;;5.68;2.35;;;;;;;11.35;82.56;100285.66;10229836;28;20055;-73
2022/09/19 05:47:10;;;;;;;5.55;1.73;;;;;;;11.26;83.23;100302.38;10234242;28;20055;-74
2022/09/19 05:57:31;;;;;;;5.70;2.25;;;;;;;11.22;84.03;100303.63;10234286;28;20058;-74
2022/09/19 06:02:33;;;;;;;7.50;2.50;;;;;;;11.22;84.20;100307.13;10249949;28;20050;-71
2022/09/19 06:07:34;;;;;;;7.82;2.72;;;;;;;11.29;84.30;100318.97;10272036;28;20051;-76
2022/09/19 06:12:36;;;;;;;8.80;2.72;;;;;;;11.47;83.50;100321.09;10277020;28;20073;-77
2022/09/19 06:17:38;;;;;;;8.07;3.50;;;;;;;11.52;83.22;100318.03;10280378;28;20065;-74
2022/09/19 06:22:39;;;;;;;6.25;2.42;;;;;;;11.77;82.35;100327.47;10256019;28;20118;-75
2022/09/19 06:27:44;;;;;;;8.68;3.50;;;;;;;11.96;80.61;100329.47;10262842;28;21516;-74
2022/09/19 06:32:46;;;;;;;8.43;3.28;;;;;;;12.27;80.15;100341.03;10282605;28;20031;-76
2022/09/19 06:37:47;;;;;;;7.25;2.42;;;;;;;12.76;79.24;100337.72;10285811;28;20051;-77
2022/09/19 06:42:49;;;;;;;5.57;2.95;;;;;;;12.90;76.75;100332.00;10274530;28;20244;-76
2022/09/19 06:47:55;;;;;;;6.72;3.88;;;;;;;12.90;76.00;100340.00;10238717;28;20504;-77
2022/09/19 06:52:56;;;;;;;9.80;3.80;;;;;;;13.04;75.16;100344.94;10240364;28;20092;-75
2022/09/19 06:57:59;;;;;;;7.88;4.25;;;;;;;13.23;74.97;100351.34;10236173;28;20058;-69
2022/09/19 07:03:04;;;;;;;4.72;3.47;;;;;;;13.34;73.62;100355.75;10232855;28;20055;-74
2022/09/19 07:08:06;;;;;;;10.32;8.15;;;;;;;13.55;72.93;100352.94;10238300;28;20069;-75
2022/09/19 07:13:13;;;;;;;5.25;4.00;;;;;;;13.38;72.72;100366.00;10236616;28;20398;-70
2022/09/19 07:18:15;;;;;;;9.52;3.72;;;;;;;13.36;73.52;100375.16;10232338;28;20058;-72
2022/09/19 07:23:18;;;;;;;7.10;4.70;;;;;;;13.28;73.30;100375.81;10230098;28;20153;-72
2022/09/19 07:28:20;;;;;;;8.07;4.17;;;;;;;13.28;73.49;100383.84;10232203;28;20047;-73
2022/09/19 07:33:23;;;;;;;7.05;4.22;;;;;;;13.47;72.64;100390.25;10234151;28;20062;-71
2022/09/19 07:38:29;;;;;;;9.50;4.88;;;;;;;13.87;71.52;100386.56;10255968;28;20061;-75
2022/09/19 07:43:30;;;;;;;6.75;3.70;;;;;;;14.03;70.61;100394.88;10258608;28;20286;-72
2022/09/19 07:48:31;;;;;;;6.40;3.90;;;;;;;13.97;69.90;100403.47;10228669;28;20046;-71
2022/09/19 07:53:33;;;;;;;7.75;3.60;;;;;;;14.04;70.16;100403.78;10229619;28;21250;-75
2022/09/19 07:58:34;;;;;;;9.02;4.10;;;;;;;13.77;70.42;100408.84;10226947;28;20054;-73
2022/09/19 08:03:36;;;;;;;7.88;3.83;;;;;;;13.74;71.24;100414.47;10240917;28;20537;-73
2022/09/19 08:08:37;;;;;;;7.43;3.60;;;;;;;14.15;70.23;100428.53;10227881;28;20046;-71
2022/09/19 08:13:38;;;;;;;6.43;3.92;;;;;;;14.36;69.32;100432.88;10226012;28;20069;-73
2022/09/19 08:18:40;;;;;;;6.72;4.65;;;;;;;14.36;69.76;100435.56;10229435;28;20047;-73
2022/09/19 08:23:42;;;;;;;7.50;4.30;;;;;;;14.27;69.02;100439.94;10226240;28;20738;-71
2022/09/19 08:28:43;;;;;;;7.65;4.85;;;;;;;14.05;70.09;100437.56;10224571;28;20350;-73
2022/09/19 08:33:47;;;;;;;7.82;4.00;;;;;;;13.91;70.65;100449.53;10225685;28;20225;-69
2022/09/19 08:38:48;;;;;;;;;;;;;;;13.90;70.06;100453.19;10226850;28;20062;-73
2022/09/19 08:43:59;;;;;;;7.55;3.75;;;;;;;14.04;70.14;100463.47;10226104;28;19938;-70
2022/09/19 08:49:27;;;;;;;6.38;3.92;;;;;;;13.92;70.37;100461.94;10225008;28;20051;-74
2022/09/19 08:54:32;;;;;;;7.32;4.15;;;;;;;14.19;69.61;100452.38;10226799;28;20564;-72
2022/09/19 08:59:37;;;;;;;4.82;3.63;;;;;;;14.62;67.64;100459.06;10223137;28;20163;-72
2022/09/19 09:04:38;;;;;;;8.70;4.00;;;;;;;14.56;68.56;100459.63;10224473;28;20548;-72
2022/09/19 09:09:50;;;;;;;7.05;3.70;;;;;;;14.55;69.40;100469.50;10227756;28;20502;-72
2022/09/19 09:15:05;;;;;;;5.65;3.33;;;;;;;14.40;69.42;100476.28;10230972;28;20051;-72
2022/09/19 09:20:39;;;;;;;5.90;3.53;;;;;;;14.54;70.47;100475.00;10228586;28;20130;-71
2022/09/19 09:25:45;;;;;;;4.13;2.92;;;;;;;14.63;68.41;100482.19;10225425;28;20054;-71
2022/09/19 09:30:49;;;;;;;3.72;2.28;;;;;;;14.56;68.48;100481.03;10228815;28;20050;-73
2022/09/19 09:35:59;;;;;;;5.70;3.33;;;;;;;14.62;68.59;100465.28;10203940;28;20052;-70
2022/09/19 09:46:58;;;;;;;6.38;3.60;;;;;;;15.00;66.61;100471.50;10225860;28;20713;-72
2022/09/19 09:52:24;;;;;;;4.60;3.70;;;;;;;15.28;67.19;100465.31;10226222;28;20050;-72
2022/09/19 09:57:32;;;;;;;5.13;3.08;;;;;;;15.77;64.55;100465.88;10236457;28;20177;-71
2022/09/19 10:08:30;;;;;;;3.08;2.58;;;;;;;17.61;60.15;100461.38;10224020;28;20051;-71
2022/09/19 10:13:39;;;;;;;4.38;1.88;;;;;;;20.86;48.47;100454.41;10226132;28;20043;-73
2022/09/19 10:18:48;;;;;;;4.43;1.42;;;;;;;20.96;45.53;100457.69;10224988;28;20059;-68
2022/09/19 10:23:50;;;;;;;5.28;2.17;;;;;;;21.30;48.51;100438.16;10224554;28;20054;-69
2022/09/19 10:28:59;;;;;;;2.63;1.52;;;;;;;21.88;45.71;100440.88;10226519;28;20081;-72
2022/09/19 10:34:05;;;;;;;4.38;1.33;;;;;;;23.22;43.30;100431.03;10220001;28;20051;-73
2022/09/19 10:39:14;;;;;;;4.65;1.38;;;;;;;22.98;41.52;100450.50;10228089;28;20055;-72
2022/09/19 10:44:22;;;;;;;3.83;2.03;;;;;;;22.38;41.46;100448.22;10224721;28;20133;-71
2022/09/19 10:49:28;;;;;;;2.83;1.25;;;;;;;22.67;43.71;100443.63;10221952;28;20536;-72
2022/09/19 10:54:40;;;;;;;2.97;1.45;;;;;;;20.30;47.69;100458.31;10222313;28;20053;-74
2022/09/19 10:59:41;;;;;;;2.85;0.95;;;;;;;20.85;45.94;100440.03;10222765;28;20057;-71
2022/09/19 11:05:03;;;;;;;4.43;1.40;;;;;;;25.52;35.03;100445.22;10223359;28;20046;-70
2022/09/19 11:10:28;;;;;;;4.70;1.40;;;;;;;21.50;41.30;100446.53;10221557;28;20046;-68
2022/09/19 11:15:35;;;;;;;4.45;1.10;;;;;;;23.16;39.72;100431.84;10225506;28;20066;-70
2022/09/19 11:20:51;;;;;;;2.58;1.08;;;;;;;26.15;33.45;100435.44;10221760;28;20062;-69
2022/09/19 11:26:14;;;;;;;2.80;1.02;;;;;;;22.02;39.50;100447.28;10218826;28;20051;-70
2022/09/19 11:31:49;;;;;;;3.55;1.10;;;;;;;23.86;38.17;100436.28;10218856;28;20062;-71
2022/09/19 11:37:21;;;;;;;3.55;1.67;;;;;;;22.55;39.82;100435.25;10218184;28;20109;-70
2022/09/19 11:42:44;;;;;;;5.07;1.15;;;;;;;20.53;42.57;100430.38;10218692;28;20539;-70
2022/09/19 11:48:07;;;;;;;4.30;1.30;;;;;;;19.30;45.67;100435.63;10216895;28;20054;-70
2022/09/19 11:53:28;;;;;;;;;;;;;;;18.35;48.38;100439.91;10232952;28;20055;-68
2022/09/19 11:58:51;;;;;;;4.38;1.13;;;;;;;18.05;50.60;100435.22;10216188;28;20234;-67
2022/09/19 12:04:05;;;;;;;4.63;1.17;;;;;;;17.70;50.51;100439.84;10217504;28;20120;-67
2022/09/19 12:09:19;;;;;;;7.15;1.27;;;;;;;17.91;51.00;100434.88;10215870;28;20512;-71
2022/09/19 12:14:41;;;;;;;4.63;0.90;;;;;;;18.21;49.08;100419.06;10216442;28;20153;-69
2022/09/19 12:19:50;;;;;;;2.88;1.33;;;;;;;18.07;49.38;100408.97;10218821;28;21291;-68
2022/09/19 12:25:08;;;;;;;3.53;1.52;;;;;;;19.29;46.32;100412.38;10218368;28;20043;-68
2022/09/19 12:30:11;;;;;;;4.35;0.80;;;;;;;27.51;31.56;100403.50;10218804;28;20268;-71
2022/09/19 12:35:50;;;;;;;6.43;0.82;;;;;;;27.73;30.64;100392.06;10217976;28;20070;-69
2022/09/19 12:40:58;;;;;;;4.13;1.05;;;;;;;23.34;38.52;100395.16;10231265;28;20049;-70
2022/09/19 12:46:36;;;;;;;2.95;0.80;;;;;;;26.55;32.68;100399.59;10220124;28;20684;-74
2022/09/19 12:51:49;;;;;;;2.40;0.60;;;;;;;21.99;39.08;100406.16;10217392;28;20074;-75
2022/09/19 12:57:22;;;;;;;4.05;1.23;;;;;;;28.50;29.77;100393.94;10231811;28;20069;-73
2022/09/19 13:02:34;;;;;;;3.95;0.93;;;;;;;29.61;26.71;100390.22;10219394;28;20434;-73
2022/09/19 13:08:28;;;;;;;3.60;0.60;;;;;;;33.15;22.87;100386.13;10224941;28;20051;-73
2022/09/19 13:13:47;;;;;;;4.47;0.85;;;;;;;31.61;24.49;100379.59;10212892;28;20051;-74
2022/09/19 13:24:12;;;;;;;5.63;0.60;;;;;;;27.20;30.58;100376.38;10222561;28;20058;-73
2022/09/19 13:29:29;;;;;;;1.88;0.40;;;;;;;31.16;25.03;100373.31;10226813;28;20058;-74
2022/09/19 13:34:33;;;;;;;3.05;0.57;;;;;;;27.37;29.08;100385.66;10221142;28;20402;-71
2022/09/19 13:39:49;;;;;;;3.25;0.63;;;;;;;25.48;31.12;100384.06;10215975;28;20047;-73
2022/09/19 13:45:11;;;;;;;2.72;0.40;;;;;;;24.86;32.37;100388.09;10222863;28;20054;-72
2022/09/19 13:50:23;;;;;;;2.50;0.75;;;;;;;23.44;35.00;100379.31;10220353;28;20717;-72
2022/09/19 13:55:56;;;;;;;2.20;1.02;;;;;;;23.06;35.70;100386.03;10225605;28;20288;-73
2022/09/19 14:01:19;;;;;;;1.85;0.50;;;;;;;22.34;37.00;100384.56;10222729;28;20055;-71
2022/09/19 14:06:31;;;;;;;;;;;;;;;21.98;37.69;100380.09;10225265;28;20039;-72
2022/09/19 14:11:33;;;;;;;2.78;0.52;;;;;;;21.74;38.48;100371.34;10223787;28;19930;-73
2022/09/19 14:16:36;;;;;;;2.50;0.60;;;;;;;21.18;39.26;100380.09;10224497;28;20054;-72
2022/09/19 14:21:40;;;;;;;3.08;0.60;;;;;;;20.46;40.96;100387.88;10222521;28;20051;-71
2022/09/19 14:26:45;;;;;;;;;;;;;;;19.80;43.29;100389.47;10227394;28;20699;-71
2022/09/19 14:32:05;;;;;;;2.13;0.60;;;;;;;19.00;44.56;100407.63;10229788;28;20277;-69
2022/09/19 14:37:30;;;;;;;2.20;0.25;;;;;;;17.58;48.38;100424.03;10229569;28;20074;-67
2022/09/19 14:42:53;;;;;;;3.60;0.70;;;;;;;17.11;54.86;100429.94;10225811;28;20597;-69
2022/09/19 14:48:03;;;;;;;1.63;0.83;;;;;;;16.85;57.11;100432.66;10225502;28;20062;-69
2022/09/19 14:53:13;;;;;;;2.33;0.73;;;;;;;16.22;58.51;100427.38;10222410;28;20133;-72
2022/09/19 14:58:26;;;;;;;1.98;0.80;;;;;;;16.26;61.24;100426.06;10223044;28;20051;-71
2022/09/19 15:03:27;;;;;;;2.08;0.50;;;;;;;16.54;60.51;100420.56;10217152;28;20061;-74
2022/09/19 15:08:30;;;;;;;3.53;1.10;;;;;;;16.58;59.79;100408.47;10220412;28;20055;-71
2022/09/19 15:13:33;;;;;;;2.28;0.40;;;;;;;16.53;58.78;100407.25;10218586;28;20054;-72
2022/09/19 15:18:39;;;;;;;2.00;0.38;;;;;;;16.68;57.38;100410.19;10218064;28;20402;-69
2022/09/19 15:23:43;;;;;;;5.15;0.77;;;;;;;16.03;58.53;100414.97;10222628;28;21294;-70
2022/09/19 15:29:06;;;;;;;;;;;;;;;15.86;58.54;100419.34;10223563;28;20097;-70
2022/09/19 15:34:15;;;;;;;2.15;0.63;;;;;;;16.06;58.37;100416.50;10219156;28;19933;-69
2022/09/19 15:39:16;;;;;;;3.25;1.10;;;;;;;16.02;56.97;100415.97;10230619;28;20534;-71
2022/09/19 15:44:27;;;;;;;4.50;0.77;;;;;;;16.00;56.89;100422.47;10218261;28;20047;-72
2022/09/19 15:49:36;;;;;;;1.38;0.88;;;;;;;16.15;58.24;100423.59;10215290;28;20055;-74
2022/09/19 15:54:52;;;;;;;3.08;1.05;;;;;;;16.26;57.49;100433.28;10231795;28;20058;-70
2022/09/19 15:59:59;;;;;;;1.75;0.70;;;;;;;16.29;54.82;100426.72;10223336;28;20065;-74
2022/09/19 16:05:25;;;;;;;1.90;1.13;;;;;;;15.98;52.89;100437.91;10217565;28;20050;-75
2022/09/19 16:10:33;;;;;;;1.33;0.30;;;;;;;15.61;51.33;100422.75;10219086;28;20046;-73
2022/09/19 16:15:56;;;;;;;2.30;0.30;;;;;;;15.54;51.51;100423.38;10232490;28;20046;-74
2022/09/19 16:21:03;;;;;;;2.67;0.50;;;;;;;15.70;51.11;100432.56;10219816;28;20470;-74
2022/09/19 16:26:05;;;;;;;1.48;0.40;;;;;;;15.49;52.04;100439.09;10221569;28;20055;-70
2022/09/19 16:31:33;;;;;;;2.72;0.30;;;;;;;15.41;50.99;100449.72;10224700;28;20073;-72
2022/09/19 16:36:44;;;;;;;1.58;0.20;;;;;;;15.29;50.94;100461.66;10220922;28;20050;-71
2022/09/19 16:41:54;;;;;;;1.60;0.30;;;;;;;15.24;50.99;100462.09;10224255;28;20077;-70
2022/09/19 16:47:07;;;;;;;1.90;0.43;;;;;;;14.98;51.43;100464.59;10222404;28;20267;-71
2022/09/19 16:52:17;;;;;;;2.47;0.40;;;;;;;14.96;51.76;100472.78;10224120;28;20058;-73
2022/09/19 16:57:22;;;;;;;3.05;0.60;;;;;;;14.91;52.71;100485.78;10223261;28;20055;-74
2022/09/19 17:02:28;;;;;;;2.35;0.40;;;;;;;14.98;52.44;100484.22;10223884;28;20058;-69
2022/09/19 17:07:29;;;;;;;3.22;0.60;;;;;;;15.04;53.35;100474.72;10219562;28;20043;-72
2022/09/19 17:12:31;;;;;;;2.08;1.02;;;;;;;15.02;53.06;100476.72;10224830;28;20070;-73
2022/09/19 17:17:33;;;;;;;2.60;0.80;;;;;;;14.96;53.31;100482.66;10224033;28;20051;-71
2022/09/19 17:22:34;;;;;;;1.75;0.63;;;;;;;14.90;53.73;100505.53;10219645;28;20510;-71
2022/09/19 17:27:35;;;;;;;3.30;0.73;;;;;;;14.88;54.15;100487.91;10212431;28;20206;-72
2022/09/19 17:32:37;;;;;;;3.55;0.80;;;;;;;14.62;54.68;100499.25;10210960;28;20081;-73
2022/09/19 17:37:39;;;;;;;2.70;0.40;;;;;;;14.65;55.31;100497.16;10219916;28;20053;-70
2022/09/19 17:42:43;;;;;;;1.40;0.45;;;;;;;14.64;55.95;100502.66;10230866;28;20161;-72
2022/09/19 17:47:44;;;;;;;2.63;0.40;;;;;;;14.46;55.95;100503.34;10213531;28;20054;-72
2022/09/19 17:52:49;;;;;;;3.22;0.70;;;;;;;14.60;57.51;100519.97;10215671;28;20425;-72
2022/09/19 17:57:51;;;;;;;1.15;0.65;;;;;;;14.61;57.43;100511.81;10210237;28;20058;-70
2022/09/19 18:08:29;;;;;;;2.80;0.60;;;;;;;14.50;57.28;100539.56;10214532;28;20071;-75
2022/09/19 18:13:45;;;;;;;1.70;0.52;;;;;;;14.47;57.34;100545.22;10233423;28;20050;-73
2022/09/19 18:18:48;;;;;;;3.38;0.52;;;;;;;14.27;58.67;100562.25;10189426;28;20152;-69
2022/09/19 18:23:49;;;;;;;3.00;0.60;;;;;;;14.45;58.69;100559.72;10208555;28;20209;-70
2022/09/19 18:29:01;;;;;;;1.90;0.50;;;;;;;14.58;58.02;100568.31;10168967;28;20078;-72
2022/09/19 18:34:07;;;;;;;2.40;0.60;;;;;;;14.38;58.24;100574.66;10203062;28;20061;-73
2022/09/19 18:39:11;;;;;;;3.38;0.70;;;;;;;14.38;59.26;100574.66;10223832;28;20129;-74
2022/09/19 18:44:12;;;;;;;;;;;;;;;14.44;59.32;100574.97;10230691;28;20165;-72
2022/09/19 18:49:15;;;;;;;2.05;0.70;;;;;;;14.47;59.96;100580.03;10235083;28;19926;-74
2022/09/19 18:54:19;;;;;;;4.53;1.05;;;;;;;14.55;59.79;100576.66;10213322;28;20269;-71
2022/09/19 18:59:22;;;;;;;3.00;0.85;;;;;;;14.52;59.75;100584.09;10225772;28;20051;-70
2022/09/19 19:04:27;;;;;;;3.75;0.70;;;;;;;14.27;61.17;100584.50;10234697;28;20063;-73
2022/09/19 19:09:28;;;;;;;2.17;1.10;;;;;;;14.33;61.84;100583.13;10224135;28;20175;-72
2022/09/19 19:14:30;;;;;;;2.63;0.90;;;;;;;14.36;60.29;100574.81;10235670;28;20062;-71
2022/09/19 19:19:31;;;;;;;4.40;1.17;;;;;;;14.40;61.20;100576.22;10234329;28;20058;-75
2022/09/19 19:24:32;;;;;;;2.45;0.98;;;;;;;14.45;61.43;100570.44;10233925;28;20066;-72
2022/09/19 19:29:39;;;;;;;3.92;1.30;;;;;;;14.52;60.08;100565.34;10236303;28;20053;-72
2022/09/19 19:34:42;;;;;;;5.00;1.38;;;;;;;14.40;60.93;100572.69;10213241;28;20556;-72
2022/09/19 19:39:46;;;;;;;3.53;1.00;;;;;;;14.39;60.18;100577.19;10226092;28;20051;-72
2022/09/19 19:44:47;;;;;;;4.18;1.20;;;;;;;14.32;61.19;100570.69;10235331;28;20298;-73
2022/09/19 19:49:49;;;;;;;3.00;1.27;;;;;;;14.49;61.56;100572.69;10228950;28;20069;-74
2022/09/19 19:54:51;;;;;;;2.28;0.90;;;;;;;14.49;61.68;100570.00;10202895;28;20062;-71
2022/09/19 19:59:52;;;;;;;4.07;0.80;;;;;;;14.21;60.99;100573.53;10234340;28;20065;-70
2022/09/19 20:04:53;;;;;;;5.35;1.30;;;;;;;13.95;62.15;100577.56;10227158;28;20046;-72
2022/09/19 20:09:55;;;;;;;3.67;1.10;;;;;;;14.12;62.40;100559.97;10229696;28;20480;-74
2022/09/19 20:14:56;;;;;;;4.50;1.10;;;;;;;14.35;62.60;100574.94;10214473;28;20337;-71
2022/09/19 20:20:01;;;;;;;3.17;1.00;;;;;;;14.32;61.18;100571.56;10202750;28;20066;-74
2022/09/19 20:25:02;;;;;;;3.15;1.23;;;;;;;14.27;62.23;100578.31;10226083;28;20050;-73
2022/09/19 20:30:08;;;;;;;4.75;1.02;;;;;;;14.36;61.38;100577.47;10234380;28;20145;-74
2022/09/19 20:35:13;;;;;;;4.28;1.50;;;;;;;14.29;62.61;100577.22;10239733;28;20058;-74
2022/09/19 20:40:15;;;;;;;4.20;0.88;;;;;;;14.23;62.69;100571.53;10231814;28;20069;-73
2022/09/19 20:45:16;;;;;;;3.42;0.77;;;;;;;14.23;61.84;100576.91;10236079;28;20730;-73
2022/09/19 20:50:18;;;;;;;2.38;0.80;;;;;;;13.92;62.10;100571.66;10239622;28;20057;-73
2022/09/19 20:55:20;;;;;;;3.33;0.98;;;;;;;13.89;62.39;100577.28;10234777;28;20054;-71
2022/09/19 21:00:21;;;;;;;2.25;0.73;;;;;;;13.73;62.17;100575.13;10236107;28;20051;-70
2022/09/19 21:05:23;;;;;;;2.42;0.70;;;;;;;13.60;62.82;100570.88;10233378;28;20554;-75
2022/09/19 21:10:25;;;;;;;6.68;1.30;;;;;;;13.59;63.63;100584.38;10239883;28;20200;-73
2022/09/19 21:15:26;;;;;;;2.17;1.52;;;;;;;13.58;63.88;100599.56;10247276;28;20051;-75
2022/09/19 21:20:27;;;;;;;4.30;1.10;;;;;;;13.62;65.23;100600.16;10233801;28;20058;-73
2022/09/19 21:25:28;;;;;;;3.05;0.73;;;;;;;13.72;65.07;100600.16;10239884;28;20051;-75
2022/09/19 21:30:30;;;;;;;6.40;1.50;;;;;;;13.48;65.01;100592.47;10242874;28;20142;-75
2022/09/19 21:35:31;;;;;;;4.65;0.90;;;;;;;13.64;64.51;100589.31;10245344;28;20058;-74
2022/09/19 21:40:33;;;;;;;3.15;1.05;;;;;;;13.55;65.27;100585.63;10244843;28;20077;-72
2022/09/19 21:45:34;;;;;;;3.53;0.95;;;;;;;13.54;65.98;100586.59;10263476;28;20047;-75
2022/09/19 21:50:35;;;;;;;2.83;1.02;;;;;;;13.73;65.35;100586.66;10251977;28;20489;-72
2022/09/19 21:55:37;;;;;;;2.90;1.00;;;;;;;13.65;65.59;100594.53;10242123;28;20749;-76
2022/09/19 22:00:38;;;;;;;2.97;1.08;;;;;;;13.62;65.94;100600.16;10249852;28;20591;-73
2022/09/19 22:05:39;;;;;;;6.15;1.23;;;;;;;13.66;65.31;100598.03;10250854;28;20055;-74
2022/09/19 22:10:41;;;;;;;3.83;0.90;;;;;;;13.73;65.98;100599.19;10245496;28;20058;-72
2022/09/19 22:15:42;;;;;;;2.88;1.00;;;;;;;13.72;65.83;100606.38;10288182;28;20118;-75
2022/09/19 22:20:43;;;;;;;4.82;1.08;;;;;;;13.66;65.67;100611.41;10286487;28;20050;-75
2022/09/19 22:25:45;;;;;;;3.92;1.67;;;;;;;13.37;66.47;100612.13;10283776;28;20043;-75
2022/09/19 22:30:47;;;;;;;4.65;1.50;;;;;;;13.43;66.63;100601.72;10260078;28;20513;-73
2022/09/19 22:35:49;;;;;;;2.47;0.65;;;;;;;13.25;66.33;100603.31;10241578;28;20055;-75
2022/09/19 22:40:50;;;;;;;4.47;1.40;;;;;;;13.12;65.79;100592.84;10236261;28;20055;-72
2022/09/19 22:45:52;;;;;;;2.72;0.70;;;;;;;13.16;65.87;100606.78;10247645;28;20051;-72
2022/09/19 22:50:54;;;;;;;2.90;1.10;;;;;;;13.32;66.25;100592.94;10249133;28;20114;-75
2022/09/19 22:56:00;;;;;;;3.30;1.10;;;;;;;13.43;65.80;100609.75;10289599;28;20292;-77
2022/09/19 23:01:13;;;;;;;2.25;1.38;;;;;;;13.54;65.98;100608.84;10293389;28;20133;-76
2022/09/19 23:06:20;;;;;;;5.72;1.92;;;;;;;13.37;66.44;100615.63;10289582;28;20335;-76
2022/09/19 23:11:23;;;;;;;5.50;1.38;;;;;;;13.24;67.21;100612.28;10286003;28;20106;-75
2022/09/19 23:16:33;;;;;;;4.10;1.42;;;;;;;13.40;67.95;100607.34;10247804;28;20047;-74
2022/09/19 23:21:36;;;;;;;3.60;1.83;;;;;;;13.57;67.86;100608.56;10244656;28;20055;-75
2022/09/19 23:26:37;;;;;;;3.72;1.83;;;;;;;13.59;67.71;100613.78;10240980;28;20114;-74
2022/09/19 23:31:39;;;;;;;5.60;1.50;;;;;;;13.38;68.03;100603.13;10236250;28;20054;-73
2022/09/19 23:36:41;;;;;;;10.05;1.63;;;;;;;13.33;68.17;100600.84;10256093;28;20915;-74
2022/09/19 23:41:42;;;;;;;3.38;1.30;;;;;;;13.43;69.02;100611.59;10253929;28;20065;-73
2022/09/19 23:46:44;;;;;;;4.95;1.35;;;;;;;13.46;69.13;100610.50;10259707;28;20060;-75
2022/09/19 23:51:46;;;;;;;5.43;1.90;;;;;;;13.48;69.07;100611.19;10244626;28;20050;-74
2022/09/19 23:56:47;;;;;;;5.68;1.20;;;;;;;13.26;69.61;100605.00;10263511;28;20051;-76
